Dati Storici

Data ora Umidita' aria (%) Temperatura aria (°C) Rad globale (W/m²) Gonioanemometro (°) Tacoanemometro (m/s) Pioggia (mm)
23-10-2012 21:30 67.5 % 14.996 0.092 11.584 1.092 0
23-10-2012 21:20 67.9 % 14.987 0.041 52.58 0.817 0
23-10-2012 21:10 67.8 % 15.051 0.015 23.056 0.769 0
23-10-2012 21:00 68.8 % 15.213 0.015 321.953 0.553 0
23-10-2012 20:50 68.1 % 15.283 0.413 319.138 0.136 0
23-10-2012 20:40 68.3 % 15.241 0.284 16.615 0.547 0
23-10-2012 20:30 68 % 15.451 0.374 342.084 0.029 0
23-10-2012 20:20 68.8 % 15.717 1.182 2.051 0.508 0
23-10-2012 20:10 70.6 % 15.361 0.797 357.054 0.383 0
23-10-2012 20:00 68.8 % 14.761 0.746 1.099 0.189 0
23-10-2012 19:50 66.2 % 15.066 0.349 289.928 -0.017 0
23-10-2012 19:40 65.1 % 15.85 0.772 343.723 -0.018 0
23-10-2012 19:30 64.6 % 15.923 0.541 34.52 0.252 0
23-10-2012 19:20 63.7 % 16.165 0.131 22.721 0.485 0
23-10-2012 19:10 62.9 % 16.505 0.387 16.065 0.325 0
23-10-2012 19:00 61.5 % 16.756 0.259 40.539 0.069 0
23-10-2012 18:50 62.7 % 16.823 -0.113 12.723 0.239 0
23-10-2012 18:40 60.7 % 16.907 -0.794 350.027 0.211 0
23-10-2012 18:30 56.6 % 17.437 -0.383 348.099 0.152 0
23-10-2012 18:20 54.6 % 17.923 0.9 71.94 0.185 0

I dati sono presentati in modo automatico a scopo informativo. In seguito a verifica i dati possono subire modifiche o essere invalidati e non riportati negli archivi definitivi.